createdAt,value
2022-08-25T00:00:23.508Z,100604.98
2022-08-25T00:01:30.020Z,100607.95
2022-08-25T00:02:34.197Z,100602.69
2022-08-25T00:03:39.572Z,100608.07
2022-08-25T00:04:43.078Z,100600.56
2022-08-25T00:05:46.739Z,100597.30
2022-08-25T00:06:50.833Z,100597.86
2022-08-25T00:07:53.123Z,100600.27
2022-08-25T00:08:55.534Z,100603.52
2022-08-25T00:09:57.868Z,100607.63
2022-08-25T00:11:03.574Z,100604.36
2022-08-25T00:12:07.365Z,100596.27
2022-08-25T00:13:10.321Z,100602.57
2022-08-25T00:14:16.266Z,100599.50
2022-08-25T00:15:18.730Z,100600.42
2022-08-25T00:16:23.570Z,100603.08
2022-08-25T00:17:25.865Z,100597.13
2022-08-25T00:18:28.365Z,100597.13
2022-08-25T00:19:34.215Z,100602.25
2022-08-25T00:20:37.528Z,100597.93
2022-08-25T00:21:42.762Z,100604.55
2022-08-25T00:22:45.198Z,100607.63
2022-08-25T00:23:47.950Z,100597.48
2022-08-25T00:24:50.293Z,100607.76
2022-08-25T00:25:52.498Z,100610.92
2022-08-25T00:26:57.122Z,100605.08
2022-08-25T00:27:59.567Z,100605.63
2022-08-25T00:29:02.269Z,100604.05
2022-08-25T00:30:05.978Z,100598.68
2022-08-25T00:31:13.944Z,100606.30
2022-08-25T00:32:16.696Z,100605.92
2022-08-25T00:33:19.161Z,100600.87
2022-08-25T00:34:24.889Z,100601.50
2022-08-25T00:35:27.270Z,100602.81
2022-08-25T00:36:30.398Z,100607.31
2022-08-25T00:37:32.900Z,100606.61
2022-08-25T00:38:35.881Z,100605.45
2022-08-25T00:39:39.995Z,100608.81
2022-08-25T00:40:43.246Z,100558.20
2022-08-25T00:41:46.019Z,100610.27
2022-08-25T00:42:48.278Z,100610.53
2022-08-25T00:43:57.233Z,100609.16
2022-08-25T00:45:00.615Z,100606.03
2022-08-25T00:46:03.863Z,100602.46
2022-08-25T00:47:06.752Z,100603.92
2022-08-25T00:48:08.948Z,100601.59
2022-08-25T00:49:27.262Z,100597.73
2022-08-25T00:50:32.662Z,100605.36
2022-08-25T00:51:46.065Z,100602.57
2022-08-25T00:52:51.763Z,100601.45
2022-08-25T00:53:54.470Z,100606.56
2022-08-25T00:55:05.747Z,100606.97
2022-08-25T00:56:05.084Z,100602.92
2022-08-25T00:57:10.186Z,100603.41
2022-08-25T00:58:22.404Z,100601.86
2022-08-25T00:59:25.994Z,100607.84
2022-08-25T01:00:38.370Z,100601.59
2022-08-25T01:01:40.886Z,100604.35
2022-08-25T01:02:43.431Z,100604.08
2022-08-25T01:03:45.895Z,100599.64
2022-08-25T01:04:49.304Z,100599.08
2022-08-25T01:05:52.986Z,100602.94
2022-08-25T01:06:56.948Z,100600.42
2022-08-25T01:08:00.632Z,100599.72
2022-08-25T01:09:04.155Z,100600.69
2022-08-25T01:10:08.575Z,100602.41
2022-08-25T01:11:11.460Z,100599.11
2022-08-25T01:12:15.848Z,100603.64
2022-08-25T01:13:27.948Z,100599.91
2022-08-25T01:14:31.974Z,100604.62
2022-08-25T01:15:34.520Z,100603.73
2022-08-25T01:16:39.838Z,100601.19
2022-08-25T01:17:51.465Z,100600.69
2022-08-25T01:18:56.705Z,100601.19
2022-08-25T01:19:59.239Z,100600.87
2022-08-25T01:21:01.618Z,100604.27
2022-08-25T01:22:04.752Z,100598.45
2022-08-25T01:23:07.151Z,100593.07
2022-08-25T01:24:12.939Z,100599.86
2022-08-25T01:25:44.545Z,100599.68
2022-08-25T01:26:47.304Z,100604.66
2022-08-25T01:27:50.601Z,100598.26
2022-08-25T01:28:54.653Z,100608.12
2022-08-25T01:29:56.947Z,100603.02
2022-08-25T01:30:59.414Z,100598.52
2022-08-25T01:32:07.412Z,100597.77
2022-08-25T01:33:11.526Z,100599.17
2022-08-25T01:34:14.670Z,100597.58
2022-08-25T01:35:17.249Z,100603.21
2022-08-25T01:36:22.205Z,100602.98
2022-08-25T01:37:24.261Z,100601.55
2022-08-25T01:38:26.416Z,100588.08
2022-08-25T01:39:30.889Z,100601.20
2022-08-25T01:40:35.385Z,100600.55
2022-08-25T01:42:04.306Z,100595.28
2022-08-25T01:43:12.901Z,100602.34
2022-08-25T01:44:17.085Z,100599.91
2022-08-25T01:45:20.454Z,100590.75
2022-08-25T01:46:23.655Z,100601.58
2022-08-25T01:47:26.424Z,100559.99
2022-08-25T01:48:28.617Z,100598.98
2022-08-25T01:49:30.942Z,100600.34
2022-08-25T01:50:34.703Z,100607.02
2022-08-25T01:51:46.787Z,100605.12
2022-08-25T01:52:55.356Z,100599.75
2022-08-25T01:53:57.869Z,100605.83
2022-08-25T01:55:00.133Z,100607.09
2022-08-25T01:56:14.822Z,100600.78
2022-08-25T01:57:18.688Z,100603.47
2022-08-25T01:59:39.717Z,100598.31
2022-08-25T02:00:45.282Z,100603.31
2022-08-25T02:01:47.724Z,100607.73
2022-08-25T02:02:54.089Z,100602.85
2022-08-25T02:03:55.557Z,100568.26
2022-08-25T02:04:57.716Z,100608.41
2022-08-25T02:06:00.457Z,100607.23
2022-08-25T02:07:06.296Z,100608.91
2022-08-25T02:08:08.687Z,100609.20
2022-08-25T02:09:14.811Z,100603.47
2022-08-25T02:10:18.113Z,100609.20
2022-08-25T02:11:21.069Z,100607.56
2022-08-25T02:12:23.336Z,100611.60
2022-08-25T02:13:26.692Z,100604.09
2022-08-25T02:14:30.578Z,100610.05
2022-08-25T02:15:33.281Z,100605.52
2022-08-25T02:16:38.144Z,100610.42
2022-08-25T02:17:40.523Z,100605.56
2022-08-25T02:18:44.749Z,100611.64
2022-08-25T02:19:47.260Z,100604.59
2022-08-25T02:20:49.697Z,100604.34
2022-08-25T02:21:52.366Z,100604.94
2022-08-25T02:22:57.251Z,100609.33
2022-08-25T02:23:59.704Z,100607.11
2022-08-25T02:25:03.970Z,100608.91
2022-08-25T02:26:06.886Z,100604.85
2022-08-25T02:27:09.305Z,100612.02
2022-08-25T02:28:11.570Z,100608.78
2022-08-25T02:29:14.013Z,100601.36
2022-08-25T02:30:17.631Z,100608.41
2022-08-25T02:31:22.552Z,100604.23
2022-08-25T02:32:24.742Z,100605.64
2022-08-25T02:33:26.903Z,100608.45
2022-08-25T02:34:29.087Z,100612.02
2022-08-25T02:35:31.465Z,100610.63
2022-08-25T02:36:34.588Z,100618.98
2022-08-25T02:37:42.139Z,100615.08
2022-08-25T02:38:45.066Z,100616.45
2022-08-25T02:39:47.624Z,100609.09
2022-08-25T02:40:50.696Z,100611.14
2022-08-25T02:41:53.286Z,100607.74
2022-08-25T02:42:56.098Z,100608.25
2022-08-25T02:44:00.513Z,100611.34
2022-08-25T02:45:04.059Z,100609.00
2022-08-25T02:46:07.335Z,100610.25
2022-08-25T02:47:11.729Z,100608.08
2022-08-25T02:48:14.169Z,100570.72
2022-08-25T02:49:16.931Z,100608.79
2022-08-25T02:50:20.356Z,100605.52
2022-08-25T02:51:24.031Z,100609.04
2022-08-25T02:52:26.307Z,100612.50
2022-08-25T02:53:29.157Z,100602.40
2022-08-25T02:54:31.409Z,100612.12
2022-08-25T02:55:33.756Z,100613.25
2022-08-25T02:56:37.262Z,100614.69
2022-08-25T02:57:40.877Z,100610.66
2022-08-25T02:58:46.886Z,100607.89
2022-08-25T02:59:49.240Z,100548.17
2022-08-25T03:00:52.413Z,100611.78
2022-08-25T03:01:55.051Z,100609.13
2022-08-25T03:02:58.528Z,100614.11
2022-08-25T03:04:01.439Z,100607.89
2022-08-25T03:05:04.907Z,100609.23
2022-08-25T03:06:08.711Z,100611.30
2022-08-25T03:07:14.112Z,100610.12
2022-08-25T03:08:20.531Z,100612.05
2022-08-25T03:09:26.099Z,100612.80
2022-08-25T03:10:28.921Z,100615.95
2022-08-25T03:11:31.304Z,100611.55
2022-08-25T03:12:33.556Z,100612.27
2022-08-25T03:13:36.276Z,100612.88
2022-08-25T03:14:39.898Z,100603.02
2022-08-25T03:15:49.315Z,100608.48
2022-08-25T03:16:51.935Z,100613.47
2022-08-25T03:17:55.725Z,100621.06
2022-08-25T03:19:00.435Z,100612.25
2022-08-25T03:20:05.485Z,100617.88
2022-08-25T03:21:10.649Z,100620.19
2022-08-25T03:22:13.167Z,100613.74
2022-08-25T03:23:15.556Z,100614.73
2022-08-25T03:24:18.127Z,100614.94
2022-08-25T03:25:24.021Z,100614.81
2022-08-25T03:26:26.123Z,100615.42
2022-08-25T03:27:29.100Z,100614.23
2022-08-25T03:28:31.631Z,100612.52
2022-08-25T03:29:33.837Z,100611.30
2022-08-25T03:30:36.974Z,100609.95
2022-08-25T03:31:39.615Z,100606.66
2022-08-25T03:32:42.590Z,100616.30
2022-08-25T03:33:45.241Z,100611.30
2022-08-25T03:34:47.454Z,100610.84
2022-08-25T03:35:49.769Z,100611.67
2022-08-25T03:36:54.730Z,100613.02
2022-08-25T03:37:58.412Z,100612.05
2022-08-25T03:39:01.110Z,100613.02
2022-08-25T03:40:09.462Z,100614.73
2022-08-25T03:41:19.853Z,100606.44
2022-08-25T03:42:22.635Z,100607.65
2022-08-25T03:43:24.966Z,100617.88
2022-08-25T03:44:28.397Z,100606.07
2022-08-25T03:45:32.647Z,100612.66
2022-08-25T03:46:42.539Z,100618.52
2022-08-25T03:47:49.294Z,100617.76
2022-08-25T03:48:52.108Z,100614.48
2022-08-25T03:49:54.505Z,100620.84
2022-08-25T03:50:56.908Z,100616.44
2022-08-25T03:51:59.350Z,100611.91
2022-08-25T03:53:02.944Z,100606.44
2022-08-25T03:54:06.680Z,100605.59
2022-08-25T03:55:11.864Z,100615.44
2022-08-25T03:56:15.116Z,100617.16
2022-08-25T03:57:17.261Z,100625.67
2022-08-25T03:58:19.846Z,100625.43
2022-08-25T03:59:25.289Z,100627.86
2022-08-25T04:00:29.517Z,100625.67
2022-08-25T04:01:32.480Z,100625.67
2022-08-25T04:02:35.236Z,100625.07
2022-08-25T04:03:37.557Z,100615.56
2022-08-25T04:04:39.929Z,100604.60
2022-08-25T04:05:42.453Z,100610.59
2022-08-25T04:06:44.862Z,100612.04
2022-08-25T04:07:47.339Z,100614.95
2022-08-25T04:08:49.933Z,100623.13
2022-08-25T04:09:53.783Z,100625.20
2022-08-25T04:10:56.356Z,100625.06
2022-08-25T04:11:59.271Z,100623.64
2022-08-25T04:13:01.641Z,100616.92
2022-08-25T04:14:04.325Z,100623.00
2022-08-25T04:15:08.733Z,100609.47
2022-08-25T04:16:16.171Z,100611.78
2022-08-25T04:17:18.942Z,100612.66
2022-08-25T04:18:21.538Z,100615.19
2022-08-25T04:19:24.060Z,100605.20
2022-08-25T04:20:26.930Z,100605.20
2022-08-25T04:21:29.659Z,100606.36
2022-08-25T04:22:32.005Z,100601.83
2022-08-25T04:23:38.237Z,100602.67
2022-08-25T04:24:40.548Z,100609.00
2022-08-25T04:25:43.002Z,100601.45
2022-08-25T04:26:49.012Z,100605.06
2022-08-25T04:27:51.363Z,100605.77
2022-08-25T04:28:55.439Z,100604.92
2022-08-25T04:29:57.909Z,100602.37
2022-08-25T04:31:02.983Z,100597.32
2022-08-25T04:32:05.415Z,100595.09
2022-08-25T04:33:07.756Z,100593.98
2022-08-25T04:34:28.405Z,100590.65
2022-08-25T04:35:14.820Z,100589.20
2022-08-25T04:36:18.925Z,100592.23
2022-08-25T04:37:21.336Z,100586.17
2022-08-25T04:38:23.747Z,100588.47
2022-08-25T04:39:26.522Z,100578.50
2022-08-25T04:40:29.417Z,100584.05
2022-08-25T04:41:32.442Z,100586.91
2022-08-25T04:42:35.100Z,100581.27
2022-08-25T04:43:39.078Z,100585.27
2022-08-25T04:44:41.298Z,100583.31
2022-08-25T04:45:43.743Z,100580.77
2022-08-25T04:46:46.364Z,100579.62
2022-08-25T04:47:54.313Z,100573.59
2022-08-25T04:48:55.343Z,100574.62
2022-08-25T04:49:57.715Z,100578.02
2022-08-25T04:51:09.351Z,100576.30
2022-08-25T04:52:14.467Z,100574.05
2022-08-25T04:53:16.876Z,100577.26
2022-08-25T04:54:19.647Z,100574.05
2022-08-25T04:55:22.146Z,100570.69
2022-08-25T04:56:26.417Z,100570.83
2022-08-25T04:57:29.685Z,100576.67
2022-08-25T04:58:32.009Z,100576.39
2022-08-25T04:59:34.288Z,100571.28
2022-08-25T05:00:38.370Z,100573.42
2022-08-25T05:01:42.274Z,100563.50
2022-08-25T05:02:44.606Z,100569.43
2022-08-25T05:03:49.771Z,100565.07
2022-08-25T05:04:54.535Z,100565.89
2022-08-25T05:05:57.566Z,100561.93
2022-08-25T05:07:01.517Z,100568.42
2022-08-25T05:08:05.552Z,100565.30
2022-08-25T05:09:08.406Z,100558.13
2022-08-25T05:10:12.939Z,100566.91
2022-08-25T05:11:15.956Z,100570.83
2022-08-25T05:12:19.949Z,100564.95
2022-08-25T05:13:23.661Z,100566.80
2022-08-25T05:14:27.843Z,100571.25
2022-08-25T05:15:32.085Z,100572.45
2022-08-25T05:16:34.767Z,100572.92
2022-08-25T05:17:37.219Z,100571.07
2022-08-25T05:18:39.386Z,100561.25
2022-08-25T05:19:42.015Z,100566.69
2022-08-25T05:20:44.791Z,100567.23
2022-08-25T05:21:47.957Z,100570.64
2022-08-25T05:22:50.451Z,100565.02
2022-08-25T05:24:00.840Z,100550.55
2022-08-25T05:25:03.947Z,100562.56
2022-08-25T05:26:15.442Z,100557.12
2022-08-25T05:27:17.421Z,100556.57
2022-08-25T05:28:20.676Z,100560.42
2022-08-25T05:29:22.962Z,100558.47
2022-08-25T05:30:25.465Z,100558.73
2022-08-25T05:31:28.400Z,100557.05
2022-08-25T05:32:30.695Z,100555.25
2022-08-25T05:33:33.245Z,100556.56
2022-08-25T05:34:35.692Z,100550.86
2022-08-25T05:35:38.606Z,100555.01
2022-08-25T05:36:40.971Z,100555.70
2022-08-25T05:37:43.573Z,100558.73
2022-08-25T05:38:46.314Z,100555.70
2022-08-25T05:39:48.973Z,100523.05
2022-08-25T05:40:59.828Z,100549.30
2022-08-25T05:42:02.134Z,100552.23
2022-08-25T05:43:04.468Z,100551.83
2022-08-25T05:44:06.926Z,100551.89
2022-08-25T05:45:10.056Z,100555.20
2022-08-25T05:46:16.470Z,100550.00
2022-08-25T05:47:19.416Z,100560.02
2022-08-25T05:48:22.181Z,100546.12
2022-08-25T05:49:24.452Z,100551.48
2022-08-25T05:50:27.067Z,100554.48
2022-08-25T05:51:29.365Z,100551.97
2022-08-25T05:52:31.542Z,100553.02
2022-08-25T05:53:34.267Z,100556.25
2022-08-25T05:54:36.648Z,100561.77
2022-08-25T05:55:42.439Z,100552.67
2022-08-25T05:56:48.036Z,100551.01
2022-08-25T05:57:50.294Z,100550.81
2022-08-25T05:58:53.298Z,100547.09
2022-08-25T05:59:55.703Z,100554.59
2022-08-25T06:01:00.186Z,100545.92
2022-08-25T06:02:02.853Z,100550.59
2022-08-25T06:03:06.419Z,100541.91
2022-08-25T06:04:08.972Z,100546.02
2022-08-25T06:05:14.679Z,100549.97
2022-08-25T06:06:18.705Z,100546.88
2022-08-25T06:07:21.087Z,100552.80
2022-08-25T06:08:24.680Z,100544.80
2022-08-25T06:09:26.992Z,100549.34
2022-08-25T06:10:29.746Z,100545.31
2022-08-25T06:11:31.962Z,100552.23
2022-08-25T06:12:34.324Z,100555.73
2022-08-25T06:13:37.233Z,100551.86
2022-08-25T06:14:40.311Z,100558.81
2022-08-25T06:15:42.876Z,100562.30
2022-08-25T06:16:47.248Z,100551.08
2022-08-25T06:17:52.387Z,100559.58
2022-08-25T06:18:54.728Z,100557.69
2022-08-25T06:19:59.095Z,100543.09
2022-08-25T06:21:13.624Z,100553.61
2022-08-25T06:22:15.986Z,100553.69
2022-08-25T06:23:18.480Z,100550.70
2022-08-25T06:24:21.902Z,100554.02
2022-08-25T06:25:26.069Z,100549.09
2022-08-25T06:26:29.450Z,100554.50
2022-08-25T06:27:31.772Z,100542.63
2022-08-25T06:28:33.929Z,100542.63
2022-08-25T06:29:36.384Z,100558.00
2022-08-25T06:30:40.451Z,100560.23
2022-08-25T06:31:42.998Z,100550.75
2022-08-25T06:32:46.086Z,100559.24
2022-08-25T06:33:49.567Z,100558.75
2022-08-25T06:34:53.843Z,100551.94
2022-08-25T06:35:56.710Z,100560.93
2022-08-25T06:36:59.132Z,100560.05
2022-08-25T06:38:02.965Z,100561.41
2022-08-25T06:39:06.588Z,100551.09
2022-08-25T06:40:10.748Z,100556.69
2022-08-25T06:41:14.111Z,100553.39
2022-08-25T06:42:16.299Z,100549.84
2022-08-25T06:43:20.103Z,100554.91
2022-08-25T06:44:23.755Z,100554.88
2022-08-25T06:45:27.992Z,100545.01
2022-08-25T06:46:36.604Z,100549.23
2022-08-25T06:47:37.410Z,100553.20
2022-08-25T06:48:40.121Z,100551.38
2022-08-25T06:49:43.375Z,100554.55
2022-08-25T06:50:46.535Z,100549.63
2022-08-25T06:51:49.341Z,100546.78
2022-08-25T06:52:51.548Z,100552.47
2022-08-25T06:53:53.846Z,100554.16
2022-08-25T06:54:56.528Z,100553.80
2022-08-25T06:56:01.299Z,100558.63
2022-08-25T06:57:04.728Z,100549.27
2022-08-25T06:58:10.254Z,100545.47
2022-08-25T06:59:11.937Z,100554.19
2022-08-25T07:00:15.855Z,100552.80
2022-08-25T07:01:21.460Z,100555.55
2022-08-25T07:02:24.217Z,100556.73
2022-08-25T07:03:26.945Z,100558.69
2022-08-25T07:04:29.975Z,100554.83
2022-08-25T07:05:43.589Z,100544.92
2022-08-25T07:06:37.360Z,100542.67
2022-08-25T07:07:43.116Z,100550.92
2022-08-25T07:08:46.921Z,100544.45
2022-08-25T07:09:49.883Z,100536.66
2022-08-25T07:10:52.554Z,100541.56
2022-08-25T07:11:55.161Z,100540.83
2022-08-25T07:12:57.466Z,100538.30
2022-08-25T07:14:02.816Z,100541.83
2022-08-25T07:15:21.950Z,100542.05
2022-08-25T07:16:13.960Z,100540.45
2022-08-25T07:17:16.880Z,100545.11
2022-08-25T07:18:21.493Z,100534.70
2022-08-25T07:19:25.752Z,100545.30
2022-08-25T07:20:28.651Z,100541.79
2022-08-25T07:21:35.909Z,100538.47
2022-08-25T07:22:39.725Z,100532.61
2022-08-25T07:23:43.542Z,100533.38
2022-08-25T07:24:46.188Z,100531.94
2022-08-25T07:25:55.195Z,100532.61
2022-08-25T07:26:57.806Z,100530.80
2022-08-25T07:28:00.363Z,100539.23
2022-08-25T07:30:26.886Z,100535.83
2022-08-25T07:31:29.792Z,100532.61
2022-08-25T07:32:32.797Z,100538.83
2022-08-25T07:33:35.604Z,100532.09
2022-08-25T07:34:38.948Z,100531.33
2022-08-25T07:36:56.558Z,100528.05
2022-08-25T07:37:59.554Z,100473.12
2022-08-25T07:39:04.196Z,100523.62
2022-08-25T07:40:21.987Z,100530.94
2022-08-25T07:41:26.259Z,100531.64
2022-08-25T07:42:28.665Z,100522.13
2022-08-25T07:43:31.365Z,100519.32
2022-08-25T07:44:33.861Z,100521.12
2022-08-25T07:45:49.229Z,100515.70
2022-08-25T07:46:43.435Z,100517.88
2022-08-25T07:47:46.042Z,100514.40
2022-08-25T07:48:53.322Z,100513.39
2022-08-25T07:49:54.897Z,100507.10
2022-08-25T07:50:57.393Z,100505.00
2022-08-25T07:52:05.483Z,100518.04
2022-08-25T07:53:06.435Z,100504.59
2022-08-25T07:54:11.664Z,100504.17
2022-08-25T07:55:18.009Z,100511.58
2022-08-25T07:56:18.586Z,100507.57
2022-08-25T07:57:21.255Z,100509.89
2022-08-25T07:58:25.065Z,100510.54
2022-08-25T07:59:29.850Z,100507.67
2022-08-25T08:00:33.438Z,100506.45
2022-08-25T08:01:39.068Z,100503.57
2022-08-25T08:02:45.479Z,100505.09
2022-08-25T08:03:51.256Z,100499.03
2022-08-25T08:04:53.449Z,100496.30
2022-08-25T08:05:55.870Z,100496.07
2022-08-25T08:06:58.601Z,100496.04
2022-08-25T08:08:01.620Z,100494.42
2022-08-25T08:09:03.868Z,100485.83
2022-08-25T08:10:37.131Z,100491.08
2022-08-25T08:11:24.343Z,100487.78
2022-08-25T08:12:27.734Z,100489.29
2022-08-25T08:13:30.390Z,100493.69
2022-08-25T08:14:33.022Z,100481.08
2022-08-25T08:15:39.731Z,100481.08
2022-08-25T08:16:42.556Z,100481.91
2022-08-25T08:17:46.540Z,100432.69
2022-08-25T08:18:52.625Z,100475.81
2022-08-25T08:19:55.174Z,100477.68
2022-08-25T08:21:00.613Z,100476.84
2022-08-25T08:22:04.819Z,100482.72
2022-08-25T08:23:07.576Z,100481.91
2022-08-25T08:24:25.043Z,100479.58
2022-08-25T08:25:18.586Z,100473.50
2022-08-25T08:26:20.599Z,100478.99
2022-08-25T08:27:23.252Z,100462.78
2022-08-25T08:28:25.531Z,100438.59
2022-08-25T08:29:28.217Z,100457.92
2022-08-25T08:30:31.195Z,100469.88
2022-08-25T08:31:33.496Z,100463.78
2022-08-25T08:32:59.613Z,100461.70
2022-08-25T08:33:40.909Z,100468.44
2022-08-25T08:34:43.300Z,100465.53
2022-08-25T08:35:47.092Z,100458.95
2022-08-25T08:36:49.565Z,100453.70
2022-08-25T08:37:53.926Z,100458.31
2022-08-25T08:38:56.203Z,100456.22
2022-08-25T08:39:58.550Z,100449.06
2022-08-25T08:41:13.127Z,100464.22
2022-08-25T08:42:42.327Z,100458.95
2022-08-25T08:43:50.371Z,100458.30
2022-08-25T08:45:17.465Z,100458.34
2022-08-25T08:46:22.693Z,100450.70
2022-08-25T08:48:04.723Z,100454.09
2022-08-25T08:49:12.260Z,100444.63
2022-08-25T08:50:39.894Z,100444.83
2022-08-25T08:51:45.854Z,100443.98
2022-08-25T08:53:01.416Z,100447.83
2022-08-25T08:54:16.710Z,100446.11
2022-08-25T08:55:35.118Z,100442.75
2022-08-25T08:56:45.458Z,100441.24
2022-08-25T09:00:09.585Z,100438.45
2022-08-25T09:01:21.025Z,100435.53
2022-08-25T09:02:38.629Z,100440.78
2022-08-25T09:03:40.441Z,100438.94
2022-08-25T09:04:50.425Z,100425.89
2022-08-25T09:05:55.716Z,100446.50
2022-08-25T09:07:02.348Z,100441.86
2022-08-25T09:08:11.839Z,100435.89
2022-08-25T09:09:19.242Z,100429.12
2022-08-25T09:10:27.367Z,100427.20
2022-08-25T09:11:53.004Z,100433.41
2022-08-25T09:13:11.327Z,100439.28
2022-08-25T09:14:33.050Z,100430.81
2022-08-25T09:15:52.795Z,100433.63
2022-08-25T09:17:20.427Z,100437.58
2022-08-25T09:18:40.881Z,100437.46
2022-08-25T09:20:18.925Z,100420.83
2022-08-25T09:21:26.863Z,100430.66
2022-08-25T09:22:38.591Z,100417.45
2022-08-25T09:23:48.396Z,100413.27
2022-08-25T09:25:12.580Z,100417.05
2022-08-25T09:27:41.029Z,100417.63
2022-08-25T09:28:53.569Z,100417.38
2022-08-25T09:30:05.228Z,100422.45
2022-08-25T09:31:26.478Z,100417.73
2022-08-25T09:32:31.604Z,100414.74
2022-08-25T09:33:35.925Z,100413.20
2022-08-25T09:34:39.827Z,100407.66
2022-08-25T09:35:42.915Z,100417.95
2022-08-25T09:36:46.279Z,100416.52
2022-08-25T09:38:11.186Z,100414.42
2022-08-25T09:39:14.106Z,100417.38
2022-08-25T09:40:17.257Z,100414.46
2022-08-25T09:42:49.909Z,100404.20
2022-08-25T09:43:54.269Z,100405.67
2022-08-25T09:44:57.204Z,100406.10
2022-08-25T09:46:03.170Z,100410.64
2022-08-25T09:47:24.025Z,100400.13
2022-08-25T09:48:29.773Z,100374.96
2022-08-25T09:50:00.644Z,100403.95
2022-08-25T09:52:32.063Z,100396.53
2022-08-25T09:53:34.441Z,100393.47
2022-08-25T09:54:46.926Z,100393.18
2022-08-25T09:55:43.415Z,100400.09
2022-08-25T09:56:52.087Z,100399.48
2022-08-25T09:57:56.522Z,100395.48
2022-08-25T09:59:21.418Z,100402.61
2022-08-25T10:03:11.173Z,100387.33
2022-08-25T10:04:18.978Z,100387.02
2022-08-25T10:05:23.434Z,100388.64
2022-08-25T10:06:31.110Z,100379.17
2022-08-25T10:07:36.988Z,100380.65
2022-08-25T10:08:46.641Z,100381.11
2022-08-25T10:09:55.313Z,100376.22
2022-08-25T10:11:01.453Z,100370.56
2022-08-25T10:13:44.225Z,100360.23
2022-08-25T10:14:47.270Z,100361.53
2022-08-25T10:16:20.628Z,100364.02
2022-08-25T10:17:27.689Z,100369.49
2022-08-25T10:18:29.981Z,100363.59
2022-08-25T10:19:32.664Z,100361.89
2022-08-25T10:20:35.640Z,100368.59
2022-08-25T10:21:42.189Z,100371.23
2022-08-25T10:22:48.305Z,100381.97
2022-08-25T10:23:52.943Z,100374.23
2022-08-25T10:24:56.022Z,100367.72
2022-08-25T10:26:04.576Z,100366.11
2022-08-25T10:27:18.005Z,100364.88
2022-08-25T10:28:32.931Z,100376.89
2022-08-25T10:29:58.164Z,100364.84
2022-08-25T10:32:38.674Z,100373.94
2022-08-25T10:33:56.389Z,100366.94
2022-08-25T10:35:01.086Z,100356.85
2022-08-25T10:36:12.993Z,100359.59
2022-08-25T10:38:50.500Z,100364.88
2022-08-25T10:39:59.486Z,100373.19
2022-08-25T10:41:39.035Z,100366.45
2022-08-25T10:42:44.859Z,100365.84
2022-08-25T10:43:56.944Z,100357.16
2022-08-25T10:45:04.831Z,100355.70
2022-08-25T10:46:13.789Z,100352.98
2022-08-25T10:47:53.300Z,100349.39
2022-08-25T10:49:14.983Z,100346.89
2022-08-25T10:50:33.542Z,100354.27
2022-08-25T10:51:42.225Z,100348.77
2022-08-25T10:52:51.488Z,100298.53
2022-08-25T10:54:15.040Z,100349.30
2022-08-25T10:55:21.162Z,100340.62
2022-08-25T10:56:28.219Z,100346.73
2022-08-25T10:57:43.539Z,100333.36
2022-08-25T10:59:01.773Z,100346.04
2022-08-25T11:00:08.426Z,100338.00
2022-08-25T11:01:36.656Z,100348.25
2022-08-25T11:03:13.694Z,100338.61
2022-08-25T11:04:25.328Z,100337.84
2022-08-25T11:05:56.993Z,100340.56
2022-08-25T11:07:21.931Z,100276.48
2022-08-25T11:08:45.995Z,100332.70
2022-08-25T11:09:51.397Z,100344.64
2022-08-25T11:11:15.345Z,100334.30
2022-08-25T11:12:24.636Z,100337.30
2022-08-25T11:14:55.104Z,100329.98
2022-08-25T11:16:18.582Z,100327.94
2022-08-25T11:17:28.702Z,100332.95
2022-08-25T11:18:32.368Z,100331.18
2022-08-25T11:19:41.213Z,100328.09
2022-08-25T11:22:19.358Z,100332.27
2022-08-25T11:23:25.753Z,100330.48
2022-08-25T11:24:48.969Z,100321.82
2022-08-25T11:25:53.668Z,100313.78
2022-08-25T11:26:57.493Z,100322.27
2022-08-25T11:28:24.340Z,100319.08
2022-08-25T11:29:30.950Z,100312.71
2022-08-25T11:30:34.612Z,100317.64
2022-08-25T11:31:40.949Z,100314.39
2022-08-25T11:32:50.549Z,100325.28
2022-08-25T11:33:55.602Z,100320.77
2022-08-25T11:35:00.838Z,100317.87
2022-08-25T11:36:07.033Z,100321.27
2022-08-25T11:37:23.748Z,100320.00
2022-08-25T11:38:49.547Z,100314.54
2022-08-25T11:39:55.533Z,100317.92
2022-08-25T11:41:14.643Z,100315.69
2022-08-25T11:42:26.407Z,100313.95
2022-08-25T11:43:35.782Z,100311.78
2022-08-25T11:44:55.966Z,100313.83
2022-08-25T11:45:59.851Z,100315.29
2022-08-25T11:47:22.828Z,100310.12
2022-08-25T11:48:29.443Z,100310.35
2022-08-25T11:49:54.101Z,100315.45
2022-08-25T11:51:11.288Z,100315.29
2022-08-25T11:52:34.647Z,100319.94
2022-08-25T11:53:41.794Z,100310.58
2022-08-25T11:54:46.539Z,100313.22
2022-08-25T11:55:51.659Z,100306.64
2022-08-25T11:57:02.012Z,100312.00
2022-08-25T11:58:33.780Z,100307.80
2022-08-25T11:59:56.013Z,100301.10
2022-08-25T12:01:01.895Z,100306.95
2022-08-25T12:02:04.231Z,100310.52
2022-08-25T12:03:30.354Z,100303.82
2022-08-25T12:04:44.458Z,100304.87
2022-08-25T12:05:52.664Z,100297.97
2022-08-25T12:07:11.686Z,100308.91
2022-08-25T12:08:19.597Z,100303.11
2022-08-25T12:09:24.642Z,100310.06
2022-08-25T12:10:56.748Z,100304.19
2022-08-25T12:12:02.443Z,100309.23
2022-08-25T12:13:26.557Z,100306.54
2022-08-25T12:14:34.455Z,100304.42
2022-08-25T12:15:43.312Z,100301.70
2022-08-25T12:16:58.652Z,100294.27
2022-08-25T12:18:16.474Z,100296.75
2022-08-25T12:19:40.653Z,100296.27
2022-08-25T12:20:58.847Z,100296.27
2022-08-25T12:22:04.735Z,100298.80
2022-08-25T12:23:10.725Z,100303.82
2022-08-25T12:24:15.154Z,100297.87
2022-08-25T12:25:26.545Z,100301.09
2022-08-25T12:26:48.871Z,100298.70
2022-08-25T12:28:09.294Z,100297.66
2022-08-25T12:29:21.407Z,100290.70
2022-08-25T12:30:47.856Z,100292.74
2022-08-25T12:32:05.227Z,100291.53
2022-08-25T12:33:34.239Z,100283.80
2022-08-25T12:34:50.240Z,100285.63
2022-08-25T12:35:56.608Z,100281.84
2022-08-25T12:37:06.583Z,100283.09
2022-08-25T12:39:25.723Z,100274.06
2022-08-25T12:40:40.746Z,100281.52
2022-08-25T12:44:37.445Z,100276.63
2022-08-25T12:45:46.193Z,100286.61
2022-08-25T12:46:54.527Z,100280.36
2022-08-25T12:48:00.626Z,100293.94
2022-08-25T12:49:34.240Z,100286.92
2022-08-25T12:50:43.215Z,100285.05
2022-08-25T12:51:54.894Z,100281.16
2022-08-25T12:53:23.343Z,100286.20
2022-08-25T12:54:29.908Z,100285.33
2022-08-25T12:55:33.420Z,100283.64
2022-08-25T12:56:39.538Z,100270.58
2022-08-25T12:57:51.420Z,100273.14
2022-08-25T12:59:15.580Z,100268.48
2022-08-25T13:01:43.697Z,100270.55
2022-08-25T13:03:06.679Z,100270.28
2022-08-25T13:04:23.920Z,100266.91
2022-08-25T13:05:48.087Z,100266.73